sensor_id;sensor_type;location;lat;lon;timestamp;P1;durP1;ratioP1;P2;durP2;ratioP2
21825;SDS011;11075;47.944;11.776;2023-02-11T00:01:19;15.33;;;7.00;;
21825;SDS011;11075;47.944;11.776;2023-02-11T00:03:47;14.10;;;7.57;;
21825;SDS011;11075;47.944;11.776;2023-02-11T00:06:14;15.83;;;7.03;;
21825;SDS011;11075;47.944;11.776;2023-02-11T00:08:42;16.40;;;7.37;;
21825;SDS011;11075;47.944;11.776;2023-02-11T00:11:11;15.30;;;8.13;;
21825;SDS011;11075;47.944;11.776;2023-02-11T00:13:40;17.77;;;8.53;;
21825;SDS011;11075;47.944;11.776;2023-02-11T00:16:09;16.00;;;7.63;;
21825;SDS011;11075;47.944;11.776;2023-02-11T00:18:38;15.83;;;7.67;;
21825;SDS011;11075;47.944;11.776;2023-02-11T00:21:08;16.77;;;7.53;;
21825;SDS011;11075;47.944;11.776;2023-02-11T00:23:37;15.57;;;7.43;;
21825;SDS011;11075;47.944;11.776;2023-02-11T00:26:14;14.80;;;8.03;;
21825;SDS011;11075;47.944;11.776;2023-02-11T00:28:47;14.27;;;7.67;;
21825;SDS011;11075;47.944;11.776;2023-02-11T00:31:15;17.17;;;8.40;;
21825;SDS011;11075;47.944;11.776;2023-02-11T00:33:43;17.77;;;7.97;;
21825;SDS011;11075;47.944;11.776;2023-02-11T00:36:12;17.80;;;8.93;;
21825;SDS011;11075;47.944;11.776;2023-02-11T00:38:44;13.63;;;7.67;;
21825;SDS011;11075;47.944;11.776;2023-02-11T00:41:13;16.57;;;7.93;;
21825;SDS011;11075;47.944;11.776;2023-02-11T00:43:41;14.23;;;7.73;;
21825;SDS011;11075;47.944;11.776;2023-02-11T00:46:08;14.27;;;7.87;;
21825;SDS011;11075;47.944;11.776;2023-02-11T00:48:35;19.30;;;8.10;;
21825;SDS011;11075;47.944;11.776;2023-02-11T00:51:02;12.70;;;7.43;;
21825;SDS011;11075;47.944;11.776;2023-02-11T00:53:30;14.87;;;7.37;;
21825;SDS011;11075;47.944;11.776;2023-02-11T00:55:57;14.10;;;7.13;;
21825;SDS011;11075;47.944;11.776;2023-02-11T00:58:24;16.57;;;7.83;;
21825;SDS011;11075;47.944;11.776;2023-02-11T01:00:52;18.30;;;7.93;;
21825;SDS011;11075;47.944;11.776;2023-02-11T01:03:19;18.13;;;7.93;;
21825;SDS011;11075;47.944;11.776;2023-02-11T01:05:46;13.97;;;7.77;;
21825;SDS011;11075;47.944;11.776;2023-02-11T01:08:14;16.53;;;8.10;;
21825;SDS011;11075;47.944;11.776;2023-02-11T01:10:41;17.93;;;8.17;;
21825;SDS011;11075;47.944;11.776;2023-02-11T01:13:09;14.60;;;7.90;;
21825;SDS011;11075;47.944;11.776;2023-02-11T01:15:36;15.27;;;7.10;;
21825;SDS011;11075;47.944;11.776;2023-02-11T01:18:03;13.20;;;7.20;;
21825;SDS011;11075;47.944;11.776;2023-02-11T01:20:30;16.60;;;7.97;;
21825;SDS011;11075;47.944;11.776;2023-02-11T01:22:57;14.40;;;7.33;;
21825;SDS011;11075;47.944;11.776;2023-02-11T01:25:24;15.77;;;8.20;;
21825;SDS011;11075;47.944;11.776;2023-02-11T01:27:51;17.60;;;7.27;;
21825;SDS011;11075;47.944;11.776;2023-02-11T01:30:17;15.87;;;7.33;;
21825;SDS011;11075;47.944;11.776;2023-02-11T01:32:45;15.50;;;7.57;;
21825;SDS011;11075;47.944;11.776;2023-02-11T01:35:12;10.87;;;6.80;;
21825;SDS011;11075;47.944;11.776;2023-02-11T01:37:39;16.03;;;7.27;;
21825;SDS011;11075;47.944;11.776;2023-02-11T01:40:10;11.50;;;6.03;;
21825;SDS011;11075;47.944;11.776;2023-02-11T01:42:43;13.93;;;6.47;;
21825;SDS011;11075;47.944;11.776;2023-02-11T01:48:04;14.27;;;6.27;;
21825;SDS011;11075;47.944;11.776;2023-02-11T01:50:31;11.20;;;5.93;;
21825;SDS011;11075;47.944;11.776;2023-02-11T01:53:00;11.00;;;5.97;;
21825;SDS011;11075;47.944;11.776;2023-02-11T01:55:47;13.33;;;6.80;;
21825;SDS011;11075;47.944;11.776;2023-02-11T01:58:33;16.60;;;7.03;;
21825;SDS011;11075;47.944;11.776;2023-02-11T02:01:04;10.23;;;6.43;;
21825;SDS011;11075;47.944;11.776;2023-02-11T02:03:34;10.53;;;6.37;;
21825;SDS011;11075;47.944;11.776;2023-02-11T02:08:43;13.23;;;6.10;;
21825;SDS011;11075;47.944;11.776;2023-02-11T02:11:17;12.70;;;6.40;;
21825;SDS011;11075;47.944;11.776;2023-02-11T02:13:44;13.63;;;6.87;;
21825;SDS011;11075;47.944;11.776;2023-02-11T02:16:12;13.20;;;6.60;;
21825;SDS011;11075;47.944;11.776;2023-02-11T02:35:12;14.57;;;6.40;;
21825;SDS011;11075;47.944;11.776;2023-02-11T02:40:19;8.27;;;5.03;;
21825;SDS011;11075;47.944;11.776;2023-02-11T02:42:51;12.17;;;5.70;;
21825;SDS011;11075;47.944;11.776;2023-02-11T02:45:20;9.80;;;5.73;;
21825;SDS011;11075;47.944;11.776;2023-02-11T02:47:48;9.33;;;5.23;;
21825;SDS011;11075;47.944;11.776;2023-02-11T02:50:15;9.03;;;4.63;;
21825;SDS011;11075;47.944;11.776;2023-02-11T02:52:55;11.93;;;5.23;;
21825;SDS011;11075;47.944;11.776;2023-02-11T02:55:40;7.30;;;4.23;;
21825;SDS011;11075;47.944;11.776;2023-02-11T03:03:50;8.87;;;4.27;;
21825;SDS011;11075;47.944;11.776;2023-02-11T03:09:38;9.70;;;4.83;;
21825;SDS011;11075;47.944;11.776;2023-02-11T03:12:10;8.87;;;4.63;;
21825;SDS011;11075;47.944;11.776;2023-02-11T03:14:39;8.10;;;4.10;;
21825;SDS011;11075;47.944;11.776;2023-02-11T03:17:07;8.53;;;5.03;;
21825;SDS011;11075;47.944;11.776;2023-02-11T03:19:36;9.53;;;5.27;;
21825;SDS011;11075;47.944;11.776;2023-02-11T03:22:07;7.20;;;3.83;;
21825;SDS011;11075;47.944;11.776;2023-02-11T03:24:43;7.80;;;4.63;;
21825;SDS011;11075;47.944;11.776;2023-02-11T03:27:14;8.93;;;4.37;;
21825;SDS011;11075;47.944;11.776;2023-02-11T03:32:44;9.13;;;4.03;;
21825;SDS011;11075;47.944;11.776;2023-02-11T03:35:22;10.87;;;4.77;;
21825;SDS011;11075;47.944;11.776;2023-02-11T03:40:28;10.67;;;4.70;;
21825;SDS011;11075;47.944;11.776;2023-02-11T03:45:49;7.27;;;4.47;;
21825;SDS011;11075;47.944;11.776;2023-02-11T03:48:20;9.13;;;4.70;;
21825;SDS011;11075;47.944;11.776;2023-02-11T03:50:53;11.43;;;4.43;;
21825;SDS011;11075;47.944;11.776;2023-02-11T03:53:23;11.47;;;4.80;;
21825;SDS011;11075;47.944;11.776;2023-02-11T03:55:50;9.97;;;4.60;;
21825;SDS011;11075;47.944;11.776;2023-02-11T03:58:20;11.90;;;6.17;;
21825;SDS011;11075;47.944;11.776;2023-02-11T04:00:48;7.80;;;4.63;;
21825;SDS011;11075;47.944;11.776;2023-02-11T04:03:15;10.60;;;5.10;;
21825;SDS011;11075;47.944;11.776;2023-02-11T04:05:42;11.40;;;5.23;;
21825;SDS011;11075;47.944;11.776;2023-02-11T04:08:08;8.07;;;4.33;;
21825;SDS011;11075;47.944;11.776;2023-02-11T04:10:35;10.50;;;4.57;;
21825;SDS011;11075;47.944;11.776;2023-02-11T04:13:02;6.80;;;3.97;;
21825;SDS011;11075;47.944;11.776;2023-02-11T04:15:29;5.83;;;3.63;;
21825;SDS011;11075;47.944;11.776;2023-02-11T04:17:56;11.60;;;4.53;;
21825;SDS011;11075;47.944;11.776;2023-02-11T04:20:23;9.27;;;4.43;;
21825;SDS011;11075;47.944;11.776;2023-02-11T04:22:50;8.93;;;4.40;;
21825;SDS011;11075;47.944;11.776;2023-02-11T04:25:17;8.40;;;4.43;;
21825;SDS011;11075;47.944;11.776;2023-02-11T04:27:44;6.47;;;3.73;;
21825;SDS011;11075;47.944;11.776;2023-02-11T04:30:11;6.97;;;4.10;;
21825;SDS011;11075;47.944;11.776;2023-02-11T04:32:38;8.50;;;4.30;;
21825;SDS011;11075;47.944;11.776;2023-02-11T04:35:05;12.47;;;4.70;;
21825;SDS011;11075;47.944;11.776;2023-02-11T04:37:32;7.67;;;3.73;;
21825;SDS011;11075;47.944;11.776;2023-02-11T04:39:59;4.83;;;3.40;;
21825;SDS011;11075;47.944;11.776;2023-02-11T04:42:26;7.13;;;3.53;;
21825;SDS011;11075;47.944;11.776;2023-02-11T04:44:53;7.77;;;4.60;;
21825;SDS011;11075;47.944;11.776;2023-02-11T04:47:20;8.30;;;3.77;;
21825;SDS011;11075;47.944;11.776;2023-02-11T04:49:47;6.93;;;4.20;;
21825;SDS011;11075;47.944;11.776;2023-02-11T04:52:14;8.00;;;3.80;;
21825;SDS011;11075;47.944;11.776;2023-02-11T04:54:41;7.77;;;3.97;;
21825;SDS011;11075;47.944;11.776;2023-02-11T04:57:08;7.40;;;3.90;;
21825;SDS011;11075;47.944;11.776;2023-02-11T04:59:35;7.40;;;3.60;;
21825;SDS011;11075;47.944;11.776;2023-02-11T05:02:01;7.23;;;3.43;;
21825;SDS011;11075;47.944;11.776;2023-02-11T05:04:30;6.43;;;3.37;;
21825;SDS011;11075;47.944;11.776;2023-02-11T05:06:56;5.93;;;4.00;;
21825;SDS011;11075;47.944;11.776;2023-02-11T05:09:24;6.30;;;3.60;;
21825;SDS011;11075;47.944;11.776;2023-02-11T05:11:50;5.53;;;3.40;;
21825;SDS011;11075;47.944;11.776;2023-02-11T05:14:18;10.57;;;4.00;;
21825;SDS011;11075;47.944;11.776;2023-02-11T05:16:45;8.77;;;3.63;;
21825;SDS011;11075;47.944;11.776;2023-02-11T05:19:11;5.63;;;3.10;;
21825;SDS011;11075;47.944;11.776;2023-02-11T05:21:38;6.50;;;3.83;;
21825;SDS011;11075;47.944;11.776;2023-02-11T05:24:22;5.97;;;3.50;;
21825;SDS011;11075;47.944;11.776;2023-02-11T05:26:49;5.73;;;2.93;;
21825;SDS011;11075;47.944;11.776;2023-02-11T05:29:16;5.67;;;3.47;;
21825;SDS011;11075;47.944;11.776;2023-02-11T05:31:42;7.70;;;3.97;;
21825;SDS011;11075;47.944;11.776;2023-02-11T05:34:09;7.90;;;3.50;;
21825;SDS011;11075;47.944;11.776;2023-02-11T05:36:36;8.13;;;3.63;;
21825;SDS011;11075;47.944;11.776;2023-02-11T05:39:03;6.20;;;3.23;;
21825;SDS011;11075;47.944;11.776;2023-02-11T05:41:29;7.63;;;3.67;;
21825;SDS011;11075;47.944;11.776;2023-02-11T05:43:56;6.10;;;3.70;;
21825;SDS011;11075;47.944;11.776;2023-02-11T05:46:23;6.60;;;3.60;;
21825;SDS011;11075;47.944;11.776;2023-02-11T05:48:50;6.47;;;3.00;;
21825;SDS011;11075;47.944;11.776;2023-02-11T05:51:17;5.60;;;3.23;;
21825;SDS011;11075;47.944;11.776;2023-02-11T05:53:44;7.60;;;3.30;;
21825;SDS011;11075;47.944;11.776;2023-02-11T05:56:10;5.80;;;3.40;;
21825;SDS011;11075;47.944;11.776;2023-02-11T05:58:37;7.27;;;3.43;;
21825;SDS011;11075;47.944;11.776;2023-02-11T06:01:04;6.73;;;3.60;;
21825;SDS011;11075;47.944;11.776;2023-02-11T06:03:31;8.63;;;3.63;;
21825;SDS011;11075;47.944;11.776;2023-02-11T06:05:58;8.50;;;4.67;;
21825;SDS011;11075;47.944;11.776;2023-02-11T06:08:25;10.10;;;3.40;;
21825;SDS011;11075;47.944;11.776;2023-02-11T06:10:51;6.33;;;3.13;;
21825;SDS011;11075;47.944;11.776;2023-02-11T06:13:18;7.73;;;3.60;;
21825;SDS011;11075;47.944;11.776;2023-02-11T06:15:53;6.90;;;3.17;;
21825;SDS011;11075;47.944;11.776;2023-02-11T06:18:21;7.43;;;4.33;;
21825;SDS011;11075;47.944;11.776;2023-02-11T06:20:48;6.43;;;4.07;;
21825;SDS011;11075;47.944;11.776;2023-02-11T06:23:15;8.23;;;3.67;;
21825;SDS011;11075;47.944;11.776;2023-02-11T06:25:42;5.07;;;3.80;;
21825;SDS011;11075;47.944;11.776;2023-02-11T06:28:09;5.77;;;3.30;;
21825;SDS011;11075;47.944;11.776;2023-02-11T06:30:43;8.00;;;3.83;;
21825;SDS011;11075;47.944;11.776;2023-02-11T06:33:10;7.57;;;3.63;;
21825;SDS011;11075;47.944;11.776;2023-02-11T06:35:37;6.40;;;3.80;;
21825;SDS011;11075;47.944;11.776;2023-02-11T06:38:04;5.43;;;3.07;;
21825;SDS011;11075;47.944;11.776;2023-02-11T06:40:31;4.90;;;3.40;;
21825;SDS011;11075;47.944;11.776;2023-02-11T06:42:58;4.83;;;3.43;;
21825;SDS011;11075;47.944;11.776;2023-02-11T06:45:25;5.93;;;3.67;;
21825;SDS011;11075;47.944;11.776;2023-02-11T06:47:52;6.93;;;3.50;;
21825;SDS011;11075;47.944;11.776;2023-02-11T06:50:18;6.63;;;3.60;;
21825;SDS011;11075;47.944;11.776;2023-02-11T06:52:45;4.77;;;3.43;;
21825;SDS011;11075;47.944;11.776;2023-02-11T06:55:12;5.63;;;3.07;;
21825;SDS011;11075;47.944;11.776;2023-02-11T06:57:40;5.90;;;3.97;;
21825;SDS011;11075;47.944;11.776;2023-02-11T07:00:07;7.83;;;3.67;;
21825;SDS011;11075;47.944;11.776;2023-02-11T07:02:34;6.77;;;3.90;;
21825;SDS011;11075;47.944;11.776;2023-02-11T07:05:02;9.93;;;5.67;;
21825;SDS011;11075;47.944;11.776;2023-02-11T07:07:30;8.77;;;4.60;;
21825;SDS011;11075;47.944;11.776;2023-02-11T07:09:59;7.63;;;4.13;;
21825;SDS011;11075;47.944;11.776;2023-02-11T07:12:29;6.40;;;3.73;;
21825;SDS011;11075;47.944;11.776;2023-02-11T07:14:56;5.60;;;3.10;;
21825;SDS011;11075;47.944;11.776;2023-02-11T07:17:23;8.83;;;4.00;;
21825;SDS011;11075;47.944;11.776;2023-02-11T07:19:50;4.97;;;3.30;;
21825;SDS011;11075;47.944;11.776;2023-02-11T07:22:17;8.10;;;3.60;;
21825;SDS011;11075;47.944;11.776;2023-02-11T07:24:44;6.00;;;3.87;;
21825;SDS011;11075;47.944;11.776;2023-02-11T07:27:11;6.87;;;3.53;;
21825;SDS011;11075;47.944;11.776;2023-02-11T07:29:38;6.00;;;3.60;;
21825;SDS011;11075;47.944;11.776;2023-02-11T07:32:07;5.83;;;3.50;;
21825;SDS011;11075;47.944;11.776;2023-02-11T07:34:34;9.53;;;3.17;;
21825;SDS011;11075;47.944;11.776;2023-02-11T07:37:01;6.30;;;3.30;;
21825;SDS011;11075;47.944;11.776;2023-02-11T07:39:28;6.97;;;3.53;;
21825;SDS011;11075;47.944;11.776;2023-02-11T07:41:55;6.47;;;3.40;;
21825;SDS011;11075;47.944;11.776;2023-02-11T07:44:23;7.07;;;4.07;;
21825;SDS011;11075;47.944;11.776;2023-02-11T07:46:50;7.33;;;3.73;;
21825;SDS011;11075;47.944;11.776;2023-02-11T07:49:17;9.00;;;4.23;;
21825;SDS011;11075;47.944;11.776;2023-02-11T07:51:44;9.57;;;4.10;;
21825;SDS011;11075;47.944;11.776;2023-02-11T07:54:11;6.00;;;3.77;;
21825;SDS011;11075;47.944;11.776;2023-02-11T07:56:38;7.77;;;4.60;;
21825;SDS011;11075;47.944;11.776;2023-02-11T07:59:06;6.83;;;4.20;;
21825;SDS011;11075;47.944;11.776;2023-02-11T08:01:32;5.87;;;3.60;;
21825;SDS011;11075;47.944;11.776;2023-02-11T08:04:00;6.60;;;3.70;;
21825;SDS011;11075;47.944;11.776;2023-02-11T08:06:29;7.03;;;3.73;;
21825;SDS011;11075;47.944;11.776;2023-02-11T08:08:57;4.73;;;3.17;;
21825;SDS011;11075;47.944;11.776;2023-02-11T08:11:29;6.93;;;3.47;;
21825;SDS011;11075;47.944;11.776;2023-02-11T08:13:56;8.63;;;4.03;;
21825;SDS011;11075;47.944;11.776;2023-02-11T08:16:27;8.30;;;4.03;;
21825;SDS011;11075;47.944;11.776;2023-02-11T08:19:03;8.53;;;4.27;;
21825;SDS011;11075;47.944;11.776;2023-02-11T08:21:32;6.73;;;4.07;;
21825;SDS011;11075;47.944;11.776;2023-02-11T08:24:00;6.73;;;4.03;;
21825;SDS011;11075;47.944;11.776;2023-02-11T08:26:29;5.17;;;3.67;;
21825;SDS011;11075;47.944;11.776;2023-02-11T08:28:57;6.20;;;3.40;;
21825;SDS011;11075;47.944;11.776;2023-02-11T08:31:25;6.33;;;3.70;;
21825;SDS011;11075;47.944;11.776;2023-02-11T08:33:55;7.40;;;3.20;;
21825;SDS011;11075;47.944;11.776;2023-02-11T08:36:26;7.13;;;3.60;;
21825;SDS011;11075;47.944;11.776;2023-02-11T08:38:58;7.27;;;4.03;;
21825;SDS011;11075;47.944;11.776;2023-02-11T08:41:44;7.17;;;4.00;;
21825;SDS011;11075;47.944;11.776;2023-02-11T08:44:12;9.83;;;4.37;;
21825;SDS011;11075;47.944;11.776;2023-02-11T08:46:39;6.30;;;3.87;;
21825;SDS011;11075;47.944;11.776;2023-02-11T08:49:06;6.73;;;3.97;;
21825;SDS011;11075;47.944;11.776;2023-02-11T08:51:33;5.77;;;4.23;;
21825;SDS011;11075;47.944;11.776;2023-02-11T08:54:00;7.93;;;4.40;;
21825;SDS011;11075;47.944;11.776;2023-02-11T08:56:27;8.37;;;4.23;;
21825;SDS011;11075;47.944;11.776;2023-02-11T08:58:56;7.23;;;4.03;;
21825;SDS011;11075;47.944;11.776;2023-02-11T09:01:24;7.37;;;3.83;;
21825;SDS011;11075;47.944;11.776;2023-02-11T09:03:54;15.20;;;4.50;;
21825;SDS011;11075;47.944;11.776;2023-02-11T09:06:22;6.53;;;3.90;;
21825;SDS011;11075;47.944;11.776;2023-02-11T09:08:52;9.20;;;4.37;;
21825;SDS011;11075;47.944;11.776;2023-02-11T09:11:21;8.60;;;4.10;;
21825;SDS011;11075;47.944;11.776;2023-02-11T09:13:51;8.97;;;4.83;;
21825;SDS011;11075;47.944;11.776;2023-02-11T09:16:21;7.07;;;4.30;;
21825;SDS011;11075;47.944;11.776;2023-02-11T09:18:54;7.80;;;3.90;;
21825;SDS011;11075;47.944;11.776;2023-02-11T09:21:22;8.10;;;4.10;;
21825;SDS011;11075;47.944;11.776;2023-02-11T09:23:50;8.90;;;4.00;;
21825;SDS011;11075;47.944;11.776;2023-02-11T09:26:21;6.40;;;4.10;;
21825;SDS011;11075;47.944;11.776;2023-02-11T09:28:50;12.40;;;3.83;;
21825;SDS011;11075;47.944;11.776;2023-02-11T09:31:18;6.70;;;3.57;;
21825;SDS011;11075;47.944;11.776;2023-02-11T09:33:51;8.27;;;3.33;;
21825;SDS011;11075;47.944;11.776;2023-02-11T09:36:22;7.97;;;3.13;;
21825;SDS011;11075;47.944;11.776;2023-02-11T09:38:54;5.20;;;2.77;;
21825;SDS011;11075;47.944;11.776;2023-02-11T09:43:51;14.50;;;3.30;;
21825;SDS011;11075;47.944;11.776;2023-02-11T09:46:21;3.67;;;2.20;;
21825;SDS011;11075;47.944;11.776;2023-02-11T09:48:51;10.80;;;2.47;;
21825;SDS011;11075;47.944;11.776;2023-02-11T09:53:55;3.63;;;2.63;;
21825;SDS011;11075;47.944;11.776;2023-02-11T09:56:30;8.70;;;2.30;;
21825;SDS011;11075;47.944;11.776;2023-02-11T09:58:57;4.17;;;2.50;;
21825;SDS011;11075;47.944;11.776;2023-02-11T10:06:48;8.27;;;3.53;;
21825;SDS011;11075;47.944;11.776;2023-02-11T10:09:23;15.47;;;7.87;;
21825;SDS011;11075;47.944;11.776;2023-02-11T10:17:11;7.77;;;3.50;;
21825;SDS011;11075;47.944;11.776;2023-02-11T10:19:51;5.60;;;3.30;;
21825;SDS011;11075;47.944;11.776;2023-02-11T10:22:47;7.10;;;3.70;;
21825;SDS011;11075;47.944;11.776;2023-02-11T10:25:32;7.33;;;3.53;;
21825;SDS011;11075;47.944;11.776;2023-02-11T10:28:15;12.43;;;3.53;;
21825;SDS011;11075;47.944;11.776;2023-02-11T10:33:26;7.50;;;3.20;;
21825;SDS011;11075;47.944;11.776;2023-02-11T10:35:58;7.50;;;3.40;;
21825;SDS011;11075;47.944;11.776;2023-02-11T10:38:25;7.80;;;3.67;;
21825;SDS011;11075;47.944;11.776;2023-02-11T10:40:53;5.93;;;3.00;;
21825;SDS011;11075;47.944;11.776;2023-02-11T10:43:22;9.33;;;3.03;;
21825;SDS011;11075;47.944;11.776;2023-02-11T10:45:53;6.60;;;2.67;;
21825;SDS011;11075;47.944;11.776;2023-02-11T10:48:38;9.00;;;3.30;;
21825;SDS011;11075;47.944;11.776;2023-02-11T10:51:24;7.03;;;2.30;;
21825;SDS011;11075;47.944;11.776;2023-02-11T10:56:30;4.40;;;1.87;;
21825;SDS011;11075;47.944;11.776;2023-02-11T10:59:01;5.30;;;2.10;;
21825;SDS011;11075;47.944;11.776;2023-02-11T11:01:38;3.63;;;2.43;;
21825;SDS011;11075;47.944;11.776;2023-02-11T11:07:21;3.13;;;2.20;;
21825;SDS011;11075;47.944;11.776;2023-02-11T11:10:01;2.57;;;2.07;;
21825;SDS011;11075;47.944;11.776;2023-02-11T11:12:46;3.00;;;1.97;;
21825;SDS011;11075;47.944;11.776;2023-02-11T11:15:27;3.83;;;2.50;;
21825;SDS011;11075;47.944;11.776;2023-02-11T11:18:09;12.67;;;6.63;;
21825;SDS011;11075;47.944;11.776;2023-02-11T11:21:11;15.70;;;10.53;;
21825;SDS011;11075;47.944;11.776;2023-02-11T11:23:56;2.80;;;2.10;;
21825;SDS011;11075;47.944;11.776;2023-02-11T11:26:27;3.90;;;1.90;;
21825;SDS011;11075;47.944;11.776;2023-02-11T11:34:35;2.97;;;1.70;;
21825;SDS011;11075;47.944;11.776;2023-02-11T11:37:10;3.30;;;1.60;;
21825;SDS011;11075;47.944;11.776;2023-02-11T11:39:47;2.10;;;1.60;;
21825;SDS011;11075;47.944;11.776;2023-02-11T11:42:34;4.37;;;2.00;;
21825;SDS011;11075;47.944;11.776;2023-02-11T11:47:44;3.67;;;2.03;;
21825;SDS011;11075;47.944;11.776;2023-02-11T11:58:32;3.50;;;1.57;;
21825;SDS011;11075;47.944;11.776;2023-02-11T12:09:35;3.60;;;1.67;;
21825;SDS011;11075;47.944;11.776;2023-02-11T12:18:29;2.07;;;1.37;;
21825;SDS011;11075;47.944;11.776;2023-02-11T12:26:20;1.97;;;1.43;;
21825;SDS011;11075;47.944;11.776;2023-02-11T12:55:11;1.23;;;1.00;;
21825;SDS011;11075;47.944;11.776;2023-02-11T12:57:46;1.53;;;1.03;;
21825;SDS011;11075;47.944;11.776;2023-02-11T13:00:16;1.20;;;1.10;;
21825;SDS011;11075;47.944;11.776;2023-02-11T13:05:38;2.20;;;0.93;;
21825;SDS011;11075;47.944;11.776;2023-02-11T13:10:47;3.07;;;1.07;;
21825;SDS011;11075;47.944;11.776;2023-02-11T13:13:21;2.13;;;1.13;;
21825;SDS011;11075;47.944;11.776;2023-02-11T13:15:53;1.47;;;1.30;;
21825;SDS011;11075;47.944;11.776;2023-02-11T13:18:38;2.43;;;1.17;;
21825;SDS011;11075;47.944;11.776;2023-02-11T13:26:18;2.17;;;1.60;;
21825;SDS011;11075;47.944;11.776;2023-02-11T13:28:52;3.67;;;1.83;;
21825;SDS011;11075;47.944;11.776;2023-02-11T13:31:21;2.13;;;1.63;;
21825;SDS011;11075;47.944;11.776;2023-02-11T13:33:52;1.97;;;1.70;;
21825;SDS011;11075;47.944;11.776;2023-02-11T13:36:20;3.73;;;1.73;;
21825;SDS011;11075;47.944;11.776;2023-02-11T13:38:51;2.80;;;2.17;;
21825;SDS011;11075;47.944;11.776;2023-02-11T13:41:29;4.43;;;2.50;;
21825;SDS011;11075;47.944;11.776;2023-02-11T13:49:31;6.60;;;2.37;;
21825;SDS011;11075;47.944;11.776;2023-02-11T13:52:02;5.93;;;2.93;;
21825;SDS011;11075;47.944;11.776;2023-02-11T13:54:33;4.07;;;2.37;;
21825;SDS011;11075;47.944;11.776;2023-02-11T13:59:52;3.90;;;2.57;;
21825;SDS011;11075;47.944;11.776;2023-02-11T14:02:31;6.03;;;2.73;;
21825;SDS011;11075;47.944;11.776;2023-02-11T14:05:21;5.40;;;2.43;;
21825;SDS011;11075;47.944;11.776;2023-02-11T14:10:55;6.10;;;4.20;;
21825;SDS011;11075;47.944;11.776;2023-02-11T14:13:31;4.80;;;2.60;;
21825;SDS011;11075;47.944;11.776;2023-02-11T14:16:09;3.50;;;2.73;;
21825;SDS011;11075;47.944;11.776;2023-02-11T14:23:42;5.53;;;2.47;;
21825;SDS011;11075;47.944;11.776;2023-02-11T14:28:36;4.23;;;2.30;;
21825;SDS011;11075;47.944;11.776;2023-02-11T14:31:08;2.57;;;1.80;;
21825;SDS011;11075;47.944;11.776;2023-02-11T14:33:50;3.27;;;2.40;;
21825;SDS011;11075;47.944;11.776;2023-02-11T14:39:29;7.03;;;2.10;;
21825;SDS011;11075;47.944;11.776;2023-02-11T14:42:12;6.93;;;2.40;;
21825;SDS011;11075;47.944;11.776;2023-02-11T14:44:44;3.27;;;2.03;;
21825;SDS011;11075;47.944;11.776;2023-02-11T14:47:16;5.20;;;2.20;;
21825;SDS011;11075;47.944;11.776;2023-02-11T14:49:46;3.90;;;2.33;;
21825;SDS011;11075;47.944;11.776;2023-02-11T14:52:19;3.90;;;2.10;;
21825;SDS011;11075;47.944;11.776;2023-02-11T14:55:36;3.37;;;2.37;;
21825;SDS011;11075;47.944;11.776;2023-02-11T14:58:05;5.40;;;2.20;;
21825;SDS011;11075;47.944;11.776;2023-02-11T15:00:34;4.40;;;2.30;;
21825;SDS011;11075;47.944;11.776;2023-02-11T15:03:01;4.47;;;2.43;;
21825;SDS011;11075;47.944;11.776;2023-02-11T15:05:28;5.60;;;3.43;;
21825;SDS011;11075;47.944;11.776;2023-02-11T15:07:59;7.50;;;3.90;;
21825;SDS011;11075;47.944;11.776;2023-02-11T15:10:31;13.00;;;6.50;;
21825;SDS011;11075;47.944;11.776;2023-02-11T15:13:01;20.27;;;10.13;;
21825;SDS011;11075;47.944;11.776;2023-02-11T15:15:30;12.67;;;6.87;;
21825;SDS011;11075;47.944;11.776;2023-02-11T15:17:59;6.93;;;2.63;;
21825;SDS011;11075;47.944;11.776;2023-02-11T15:20:29;5.27;;;2.63;;
21825;SDS011;11075;47.944;11.776;2023-02-11T15:23:00;4.97;;;2.57;;
21825;SDS011;11075;47.944;11.776;2023-02-11T15:25:31;8.33;;;2.00;;
21825;SDS011;11075;47.944;11.776;2023-02-11T15:27:59;10.83;;;6.30;;
21825;SDS011;11075;47.944;11.776;2023-02-11T15:30:29;14.50;;;3.40;;
21825;SDS011;11075;47.944;11.776;2023-02-11T15:33:00;14.73;;;3.57;;
21825;SDS011;11075;47.944;11.776;2023-02-11T15:35:30;20.50;;;4.73;;
21825;SDS011;11075;47.944;11.776;2023-02-11T15:38:00;7.87;;;3.13;;
21825;SDS011;11075;47.944;11.776;2023-02-11T15:40:28;6.90;;;3.50;;
21825;SDS011;11075;47.944;11.776;2023-02-11T15:43:02;8.07;;;2.20;;
21825;SDS011;11075;47.944;11.776;2023-02-11T15:50:56;6.30;;;3.00;;
21825;SDS011;11075;47.944;11.776;2023-02-11T15:56:19;7.87;;;2.10;;
21825;SDS011;11075;47.944;11.776;2023-02-11T15:58:52;7.00;;;2.60;;
21825;SDS011;11075;47.944;11.776;2023-02-11T16:01:31;5.73;;;2.00;;
21825;SDS011;11075;47.944;11.776;2023-02-11T16:04:01;5.73;;;2.00;;
21825;SDS011;11075;47.944;11.776;2023-02-11T16:06:37;3.83;;;2.23;;
21825;SDS011;11075;47.944;11.776;2023-02-11T16:11:52;10.63;;;2.40;;
21825;SDS011;11075;47.944;11.776;2023-02-11T16:17:09;3.03;;;2.00;;
21825;SDS011;11075;47.944;11.776;2023-02-11T16:19:48;5.70;;;1.80;;
21825;SDS011;11075;47.944;11.776;2023-02-11T16:22:27;6.27;;;1.93;;
21825;SDS011;11075;47.944;11.776;2023-02-11T16:25:00;4.37;;;2.20;;
21825;SDS011;11075;47.944;11.776;2023-02-11T16:27:28;3.13;;;2.00;;
21825;SDS011;11075;47.944;11.776;2023-02-11T16:30:02;6.87;;;2.00;;
21825;SDS011;11075;47.944;11.776;2023-02-11T16:32:31;8.07;;;2.23;;
21825;SDS011;11075;47.944;11.776;2023-02-11T16:34:58;12.53;;;2.10;;
21825;SDS011;11075;47.944;11.776;2023-02-11T16:37:26;8.07;;;2.60;;
21825;SDS011;11075;47.944;11.776;2023-02-11T16:39:54;8.60;;;2.23;;
21825;SDS011;11075;47.944;11.776;2023-02-11T16:42:23;8.83;;;2.70;;
21825;SDS011;11075;47.944;11.776;2023-02-11T16:44:51;5.70;;;2.57;;
21825;SDS011;11075;47.944;11.776;2023-02-11T16:47:19;6.53;;;2.23;;
21825;SDS011;11075;47.944;11.776;2023-02-11T16:49:52;10.83;;;2.53;;
21825;SDS011;11075;47.944;11.776;2023-02-11T16:52:20;5.20;;;2.07;;
21825;SDS011;11075;47.944;11.776;2023-02-11T16:54:48;5.60;;;2.43;;
21825;SDS011;11075;47.944;11.776;2023-02-11T16:57:19;11.07;;;2.23;;
21825;SDS011;11075;47.944;11.776;2023-02-11T16:59:47;10.13;;;2.50;;
21825;SDS011;11075;47.944;11.776;2023-02-11T17:02:21;4.53;;;2.37;;
21825;SDS011;11075;47.944;11.776;2023-02-11T17:04:54;6.43;;;1.90;;
21825;SDS011;11075;47.944;11.776;2023-02-11T17:07:23;8.80;;;2.33;;
21825;SDS011;11075;47.944;11.776;2023-02-11T17:09:50;4.70;;;2.20;;
21825;SDS011;11075;47.944;11.776;2023-02-11T17:12:18;6.93;;;2.07;;
21825;SDS011;11075;47.944;11.776;2023-02-11T17:14:45;10.33;;;2.23;;
21825;SDS011;11075;47.944;11.776;2023-02-11T17:17:12;5.70;;;1.97;;
21825;SDS011;11075;47.944;11.776;2023-02-11T17:19:39;5.47;;;2.17;;
21825;SDS011;11075;47.944;11.776;2023-02-11T17:22:07;4.23;;;2.00;;
21825;SDS011;11075;47.944;11.776;2023-02-11T17:24:35;5.03;;;2.37;;
21825;SDS011;11075;47.944;11.776;2023-02-11T17:27:02;5.80;;;2.20;;
21825;SDS011;11075;47.944;11.776;2023-02-11T17:29:29;10.90;;;2.13;;
21825;SDS011;11075;47.944;11.776;2023-02-11T17:31:56;6.00;;;2.10;;
21825;SDS011;11075;47.944;11.776;2023-02-11T17:34:23;6.07;;;2.13;;
21825;SDS011;11075;47.944;11.776;2023-02-11T17:36:50;4.73;;;1.80;;
21825;SDS011;11075;47.944;11.776;2023-02-11T17:39:17;5.83;;;1.90;;
21825;SDS011;11075;47.944;11.776;2023-02-11T17:41:46;5.30;;;2.00;;
21825;SDS011;11075;47.944;11.776;2023-02-11T17:44:13;5.87;;;2.10;;